sensor_id;sensor_type;location;lat;lon;timestamp;temperature;humidity
20416;DHT22;10367;52.202;5.996;2023-11-19T00:00:29;12.70;99.90
20416;DHT22;10367;52.202;5.996;2023-11-19T00:02:58;12.80;99.90
20416;DHT22;10367;52.202;5.996;2023-11-19T00:05:27;12.80;99.90
20416;DHT22;10367;52.202;5.996;2023-11-19T00:07:56;12.80;99.90
20416;DHT22;10367;52.202;5.996;2023-11-19T00:10:25;12.80;99.90
20416;DHT22;10367;52.202;5.996;2023-11-19T00:12:55;12.90;99.90
20416;DHT22;10367;52.202;5.996;2023-11-19T00:15:25;12.80;99.90
20416;DHT22;10367;52.202;5.996;2023-11-19T00:17:53;12.90;99.90
20416;DHT22;10367;52.202;5.996;2023-11-19T00:20:27;12.90;99.90
20416;DHT22;10367;52.202;5.996;2023-11-19T00:22:56;12.90;99.90
20416;DHT22;10367;52.202;5.996;2023-11-19T00:25:25;12.90;99.90
20416;DHT22;10367;52.202;5.996;2023-11-19T00:27:55;12.90;99.90
20416;DHT22;10367;52.202;5.996;2023-11-19T00:30:27;12.90;99.90
20416;DHT22;10367;52.202;5.996;2023-11-19T00:32:56;12.90;99.90
20416;DHT22;10367;52.202;5.996;2023-11-19T00:35:25;12.90;99.90
20416;DHT22;10367;52.202;5.996;2023-11-19T00:37:55;12.90;99.90
20416;DHT22;10367;52.202;5.996;2023-11-19T00:40:25;13.00;99.90
20416;DHT22;10367;52.202;5.996;2023-11-19T00:42:55;12.90;99.90
20416;DHT22;10367;52.202;5.996;2023-11-19T00:45:27;13.00;99.90
20416;DHT22;10367;52.202;5.996;2023-11-19T00:47:57;13.00;99.90
20416;DHT22;10367;52.202;5.996;2023-11-19T00:50:27;13.00;99.90
20416;DHT22;10367;52.202;5.996;2023-11-19T00:53:04;12.90;99.90
20416;DHT22;10367;52.202;5.996;2023-11-19T00:55:33;12.80;99.90
20416;DHT22;10367;52.202;5.996;2023-11-19T00:58:15;12.80;99.90
20416;DHT22;10367;52.202;5.996;2023-11-19T01:00:45;12.90;99.90
20416;DHT22;10367;52.202;5.996;2023-11-19T01:03:15;12.70;99.90
20416;DHT22;10367;52.202;5.996;2023-11-19T01:05:44;12.70;99.90
20416;DHT22;10367;52.202;5.996;2023-11-19T01:08:14;12.60;99.90
20416;DHT22;10367;52.202;5.996;2023-11-19T01:10:45;12.60;99.90
20416;DHT22;10367;52.202;5.996;2023-11-19T01:13:16;12.60;99.90
20416;DHT22;10367;52.202;5.996;2023-11-19T01:15:45;12.70;99.90
20416;DHT22;10367;52.202;5.996;2023-11-19T01:18:15;12.70;99.90
20416;DHT22;10367;52.202;5.996;2023-11-19T01:20:44;12.70;99.90
20416;DHT22;10367;52.202;5.996;2023-11-19T01:23:13;12.70;99.90
20416;DHT22;10367;52.202;5.996;2023-11-19T01:25:43;12.80;99.90
20416;DHT22;10367;52.202;5.996;2023-11-19T01:28:12;12.70;99.90
20416;DHT22;10367;52.202;5.996;2023-11-19T01:30:43;12.80;99.90
20416;DHT22;10367;52.202;5.996;2023-11-19T01:33:12;12.80;99.90
20416;DHT22;10367;52.202;5.996;2023-11-19T01:35:41;12.70;99.90
20416;DHT22;10367;52.202;5.996;2023-11-19T01:38:12;12.60;99.90
20416;DHT22;10367;52.202;5.996;2023-11-19T01:40:42;12.60;99.90
20416;DHT22;10367;52.202;5.996;2023-11-19T01:43:10;12.60;99.90
20416;DHT22;10367;52.202;5.996;2023-11-19T01:45:43;12.70;99.90
20416;DHT22;10367;52.202;5.996;2023-11-19T01:48:14;12.70;99.90
20416;DHT22;10367;52.202;5.996;2023-11-19T01:50:44;12.80;99.90
20416;DHT22;10367;52.202;5.996;2023-11-19T01:53:13;12.70;99.90
20416;DHT22;10367;52.202;5.996;2023-11-19T01:55:42;12.70;99.90
20416;DHT22;10367;52.202;5.996;2023-11-19T01:58:10;12.70;99.90
20416;DHT22;10367;52.202;5.996;2023-11-19T02:00:46;12.70;99.90
20416;DHT22;10367;52.202;5.996;2023-11-19T02:03:16;12.80;99.90
20416;DHT22;10367;52.202;5.996;2023-11-19T02:05:48;12.70;99.90
20416;DHT22;10367;52.202;5.996;2023-11-19T02:08:20;12.80;99.90
20416;DHT22;10367;52.202;5.996;2023-11-19T02:10:50;12.70;99.90
20416;DHT22;10367;52.202;5.996;2023-11-19T02:13:20;12.70;99.90
20416;DHT22;10367;52.202;5.996;2023-11-19T02:15:50;12.80;99.90
20416;DHT22;10367;52.202;5.996;2023-11-19T02:18:22;12.80;99.90
20416;DHT22;10367;52.202;5.996;2023-11-19T02:20:51;12.80;99.90
20416;DHT22;10367;52.202;5.996;2023-11-19T02:23:21;12.80;99.90
20416;DHT22;10367;52.202;5.996;2023-11-19T02:26:08;12.70;99.90
20416;DHT22;10367;52.202;5.996;2023-11-19T02:28:39;12.70;99.90
20416;DHT22;10367;52.202;5.996;2023-11-19T02:31:09;12.70;99.90
20416;DHT22;10367;52.202;5.996;2023-11-19T02:33:39;12.70;99.90
20416;DHT22;10367;52.202;5.996;2023-11-19T02:36:08;12.60;99.90
20416;DHT22;10367;52.202;5.996;2023-11-19T02:38:37;12.50;99.90
20416;DHT22;10367;52.202;5.996;2023-11-19T02:41:07;12.60;99.90
20416;DHT22;10367;52.202;5.996;2023-11-19T02:43:39;12.60;99.90
20416;DHT22;10367;52.202;5.996;2023-11-19T02:46:08;12.60;99.90
20416;DHT22;10367;52.202;5.996;2023-11-19T02:48:39;12.60;99.90
20416;DHT22;10367;52.202;5.996;2023-11-19T02:51:09;12.50;99.90
20416;DHT22;10367;52.202;5.996;2023-11-19T02:53:38;12.50;99.90
20416;DHT22;10367;52.202;5.996;2023-11-19T02:56:08;12.50;99.90
20416;DHT22;10367;52.202;5.996;2023-11-19T02:58:48;12.30;99.90
20416;DHT22;10367;52.202;5.996;2023-11-19T03:01:22;12.30;99.90
20416;DHT22;10367;52.202;5.996;2023-11-19T03:03:59;12.30;99.90
20416;DHT22;10367;52.202;5.996;2023-11-19T03:06:29;12.40;99.90
20416;DHT22;10367;52.202;5.996;2023-11-19T03:08:57;12.40;99.90
20416;DHT22;10367;52.202;5.996;2023-11-19T03:11:30;12.30;99.90
20416;DHT22;10367;52.202;5.996;2023-11-19T03:14:01;12.20;99.90
20416;DHT22;10367;52.202;5.996;2023-11-19T03:16:30;12.20;99.90
20416;DHT22;10367;52.202;5.996;2023-11-19T03:19:00;12.30;99.90
20416;DHT22;10367;52.202;5.996;2023-11-19T03:21:29;12.30;99.90
20416;DHT22;10367;52.202;5.996;2023-11-19T03:23:58;12.30;99.90
20416;DHT22;10367;52.202;5.996;2023-11-19T03:26:27;12.30;99.90
20416;DHT22;10367;52.202;5.996;2023-11-19T03:28:56;12.40;99.90
20416;DHT22;10367;52.202;5.996;2023-11-19T03:31:26;12.30;99.90
20416;DHT22;10367;52.202;5.996;2023-11-19T03:33:56;12.30;99.90
20416;DHT22;10367;52.202;5.996;2023-11-19T03:36:32;12.20;99.90
20416;DHT22;10367;52.202;5.996;2023-11-19T03:39:01;12.20;99.90
20416;DHT22;10367;52.202;5.996;2023-11-19T03:41:31;12.20;99.90
20416;DHT22;10367;52.202;5.996;2023-11-19T03:44:03;12.20;99.90
20416;DHT22;10367;52.202;5.996;2023-11-19T03:46:34;12.10;99.90
20416;DHT22;10367;52.202;5.996;2023-11-19T03:49:04;12.00;99.90
20416;DHT22;10367;52.202;5.996;2023-11-19T03:51:34;12.00;99.90
20416;DHT22;10367;52.202;5.996;2023-11-19T03:54:03;12.00;99.90
20416;DHT22;10367;52.202;5.996;2023-11-19T03:56:34;11.90;99.90
20416;DHT22;10367;52.202;5.996;2023-11-19T03:59:02;11.80;99.90
20416;DHT22;10367;52.202;5.996;2023-11-19T04:01:33;11.70;99.90
20416;DHT22;10367;52.202;5.996;2023-11-19T04:04:03;11.60;99.90
20416;DHT22;10367;52.202;5.996;2023-11-19T04:06:32;11.60;99.90
20416;DHT22;10367;52.202;5.996;2023-11-19T04:09:01;11.50;99.90
20416;DHT22;10367;52.202;5.996;2023-11-19T04:11:31;11.40;99.90
20416;DHT22;10367;52.202;5.996;2023-11-19T04:14:00;11.30;99.90
20416;DHT22;10367;52.202;5.996;2023-11-19T04:16:29;11.30;99.90
20416;DHT22;10367;52.202;5.996;2023-11-19T04:18:59;11.20;99.90
20416;DHT22;10367;52.202;5.996;2023-11-19T04:21:28;11.20;99.90
20416;DHT22;10367;52.202;5.996;2023-11-19T04:23:58;11.20;99.90
20416;DHT22;10367;52.202;5.996;2023-11-19T04:26:28;11.20;99.90
20416;DHT22;10367;52.202;5.996;2023-11-19T04:28:58;11.20;99.90
20416;DHT22;10367;52.202;5.996;2023-11-19T04:31:29;11.20;99.90
20416;DHT22;10367;52.202;5.996;2023-11-19T04:34:00;11.20;99.90
20416;DHT22;10367;52.202;5.996;2023-11-19T04:36:29;11.20;99.90
20416;DHT22;10367;52.202;5.996;2023-11-19T04:38:59;11.10;99.90
20416;DHT22;10367;52.202;5.996;2023-11-19T04:41:28;11.20;99.90
20416;DHT22;10367;52.202;5.996;2023-11-19T04:43:57;11.30;99.90
20416;DHT22;10367;52.202;5.996;2023-11-19T04:46:25;11.40;99.90
20416;DHT22;10367;52.202;5.996;2023-11-19T04:48:54;11.40;99.90
20416;DHT22;10367;52.202;5.996;2023-11-19T04:51:27;11.50;99.90
20416;DHT22;10367;52.202;5.996;2023-11-19T04:53:56;11.50;99.90
20416;DHT22;10367;52.202;5.996;2023-11-19T04:56:25;11.50;99.90
20416;DHT22;10367;52.202;5.996;2023-11-19T04:58:54;11.50;99.90
20416;DHT22;10367;52.202;5.996;2023-11-19T05:01:23;11.40;99.90
20416;DHT22;10367;52.202;5.996;2023-11-19T05:03:52;11.40;99.90
20416;DHT22;10367;52.202;5.996;2023-11-19T05:06:29;11.50;99.90
20416;DHT22;10367;52.202;5.996;2023-11-19T05:08:59;11.50;99.90
20416;DHT22;10367;52.202;5.996;2023-11-19T05:11:33;11.50;99.90
20416;DHT22;10367;52.202;5.996;2023-11-19T05:14:03;11.40;99.90
20416;DHT22;10367;52.202;5.996;2023-11-19T05:16:33;11.40;99.90
20416;DHT22;10367;52.202;5.996;2023-11-19T05:19:02;11.30;99.90
20416;DHT22;10367;52.202;5.996;2023-11-19T05:21:33;11.30;99.90
20416;DHT22;10367;52.202;5.996;2023-11-19T05:24:04;11.40;99.90
20416;DHT22;10367;52.202;5.996;2023-11-19T05:26:33;11.50;99.90
20416;DHT22;10367;52.202;5.996;2023-11-19T05:29:02;11.50;99.90
20416;DHT22;10367;52.202;5.996;2023-11-19T05:31:31;11.50;99.90
20416;DHT22;10367;52.202;5.996;2023-11-19T05:34:04;11.40;99.90
20416;DHT22;10367;52.202;5.996;2023-11-19T05:36:36;11.40;99.90
20416;DHT22;10367;52.202;5.996;2023-11-19T05:39:07;11.30;99.90
20416;DHT22;10367;52.202;5.996;2023-11-19T05:41:36;11.20;99.90
20416;DHT22;10367;52.202;5.996;2023-11-19T05:44:04;11.30;99.90
20416;DHT22;10367;52.202;5.996;2023-11-19T05:46:34;11.20;99.90
20416;DHT22;10367;52.202;5.996;2023-11-19T05:49:08;11.20;99.90
20416;DHT22;10367;52.202;5.996;2023-11-19T05:51:38;11.20;99.90
20416;DHT22;10367;52.202;5.996;2023-11-19T05:54:07;11.20;99.90
20416;DHT22;10367;52.202;5.996;2023-11-19T05:56:37;11.20;99.90
20416;DHT22;10367;52.202;5.996;2023-11-19T05:59:06;11.20;99.90
20416;DHT22;10367;52.202;5.996;2023-11-19T06:01:42;11.20;99.90
20416;DHT22;10367;52.202;5.996;2023-11-19T06:04:11;11.30;99.90
20416;DHT22;10367;52.202;5.996;2023-11-19T06:06:45;11.30;99.90
20416;DHT22;10367;52.202;5.996;2023-11-19T06:09:13;11.30;99.90
20416;DHT22;10367;52.202;5.996;2023-11-19T06:11:42;11.20;99.90
20416;DHT22;10367;52.202;5.996;2023-11-19T06:14:14;11.20;99.90
20416;DHT22;10367;52.202;5.996;2023-11-19T06:16:43;11.10;99.90
20416;DHT22;10367;52.202;5.996;2023-11-19T06:19:13;11.10;99.90
20416;DHT22;10367;52.202;5.996;2023-11-19T06:21:46;11.10;99.90
20416;DHT22;10367;52.202;5.996;2023-11-19T06:24:15;11.00;99.90
20416;DHT22;10367;52.202;5.996;2023-11-19T06:26:45;11.10;99.90
20416;DHT22;10367;52.202;5.996;2023-11-19T06:29:14;11.10;99.90
20416;DHT22;10367;52.202;5.996;2023-11-19T06:31:47;11.10;99.90
20416;DHT22;10367;52.202;5.996;2023-11-19T06:34:16;11.20;99.90
20416;DHT22;10367;52.202;5.996;2023-11-19T06:36:47;11.20;99.90
20416;DHT22;10367;52.202;5.996;2023-11-19T06:39:18;11.30;99.90
20416;DHT22;10367;52.202;5.996;2023-11-19T06:41:47;11.20;99.90
20416;DHT22;10367;52.202;5.996;2023-11-19T06:44:16;11.30;99.90
20416;DHT22;10367;52.202;5.996;2023-11-19T06:46:46;11.30;99.90
20416;DHT22;10367;52.202;5.996;2023-11-19T06:49:16;11.20;99.90
20416;DHT22;10367;52.202;5.996;2023-11-19T06:51:48;11.20;99.90
20416;DHT22;10367;52.202;5.996;2023-11-19T06:54:17;11.10;99.90
20416;DHT22;10367;52.202;5.996;2023-11-19T06:56:46;11.10;99.90
20416;DHT22;10367;52.202;5.996;2023-11-19T06:59:15;11.10;99.90
20416;DHT22;10367;52.202;5.996;2023-11-19T07:01:44;11.00;99.90
20416;DHT22;10367;52.202;5.996;2023-11-19T07:04:13;11.00;99.90
20416;DHT22;10367;52.202;5.996;2023-11-19T07:06:48;11.00;99.90
20416;DHT22;10367;52.202;5.996;2023-11-19T07:09:23;11.00;99.90
20416;DHT22;10367;52.202;5.996;2023-11-19T07:11:52;10.90;99.90
20416;DHT22;10367;52.202;5.996;2023-11-19T07:14:21;11.00;99.90
20416;DHT22;10367;52.202;5.996;2023-11-19T07:16:51;11.00;99.90
20416;DHT22;10367;52.202;5.996;2023-11-19T07:19:21;11.00;99.90
20416;DHT22;10367;52.202;5.996;2023-11-19T07:21:52;11.10;99.90
20416;DHT22;10367;52.202;5.996;2023-11-19T07:24:22;11.10;99.90
20416;DHT22;10367;52.202;5.996;2023-11-19T07:26:51;11.20;99.90
20416;DHT22;10367;52.202;5.996;2023-11-19T07:29:20;11.20;99.90
20416;DHT22;10367;52.202;5.996;2023-11-19T07:31:52;11.20;99.90
20416;DHT22;10367;52.202;5.996;2023-11-19T07:34:20;11.20;99.90
20416;DHT22;10367;52.202;5.996;2023-11-19T07:36:49;11.20;99.90
20416;DHT22;10367;52.202;5.996;2023-11-19T07:39:19;11.20;99.90
20416;DHT22;10367;52.202;5.996;2023-11-19T07:41:49;11.30;99.90
20416;DHT22;10367;52.202;5.996;2023-11-19T07:44:19;11.30;99.90
20416;DHT22;10367;52.202;5.996;2023-11-19T07:46:49;11.30;99.90
20416;DHT22;10367;52.202;5.996;2023-11-19T07:49:18;11.30;99.90
20416;DHT22;10367;52.202;5.996;2023-11-19T07:51:48;11.30;99.90
20416;DHT22;10367;52.202;5.996;2023-11-19T07:54:17;11.40;99.90
20416;DHT22;10367;52.202;5.996;2023-11-19T07:56:50;11.40;99.90
20416;DHT22;10367;52.202;5.996;2023-11-19T07:59:19;11.40;99.90
20416;DHT22;10367;52.202;5.996;2023-11-19T08:01:49;11.40;99.90
20416;DHT22;10367;52.202;5.996;2023-11-19T08:04:18;11.50;99.90
20416;DHT22;10367;52.202;5.996;2023-11-19T08:06:50;11.50;99.90
20416;DHT22;10367;52.202;5.996;2023-11-19T08:09:20;11.60;99.90
20416;DHT22;10367;52.202;5.996;2023-11-19T08:11:52;11.60;99.90
20416;DHT22;10367;52.202;5.996;2023-11-19T08:14:20;11.60;99.90
20416;DHT22;10367;52.202;5.996;2023-11-19T08:16:49;11.60;99.90
20416;DHT22;10367;52.202;5.996;2023-11-19T08:19:18;11.60;99.90
20416;DHT22;10367;52.202;5.996;2023-11-19T08:21:48;11.60;99.90
20416;DHT22;10367;52.202;5.996;2023-11-19T08:24:16;11.50;99.90
20416;DHT22;10367;52.202;5.996;2023-11-19T08:26:48;11.40;99.90
20416;DHT22;10367;52.202;5.996;2023-11-19T08:29:31;11.40;99.90
20416;DHT22;10367;52.202;5.996;2023-11-19T08:32:00;11.40;99.90
20416;DHT22;10367;52.202;5.996;2023-11-19T08:34:31;11.40;99.90
20416;DHT22;10367;52.202;5.996;2023-11-19T08:37:07;11.30;99.90
20416;DHT22;10367;52.202;5.996;2023-11-19T08:39:36;11.40;99.90
20416;DHT22;10367;52.202;5.996;2023-11-19T08:42:06;11.40;99.90
20416;DHT22;10367;52.202;5.996;2023-11-19T08:44:36;11.40;99.90
20416;DHT22;10367;52.202;5.996;2023-11-19T08:47:06;11.50;99.90
20416;DHT22;10367;52.202;5.996;2023-11-19T08:49:38;11.70;99.90
20416;DHT22;10367;52.202;5.996;2023-11-19T08:52:07;11.60;99.90
20416;DHT22;10367;52.202;5.996;2023-11-19T08:54:43;11.60;99.90
20416;DHT22;10367;52.202;5.996;2023-11-19T08:57:13;11.60;99.90
20416;DHT22;10367;52.202;5.996;2023-11-19T08:59:43;11.60;99.90
20416;DHT22;10367;52.202;5.996;2023-11-19T09:02:13;11.80;99.90
20416;DHT22;10367;52.202;5.996;2023-11-19T09:04:43;11.80;99.90
20416;DHT22;10367;52.202;5.996;2023-11-19T09:07:12;11.80;99.90
20416;DHT22;10367;52.202;5.996;2023-11-19T09:09:44;11.90;99.90
20416;DHT22;10367;52.202;5.996;2023-11-19T09:12:13;11.90;99.90
20416;DHT22;10367;52.202;5.996;2023-11-19T09:14:44;12.00;99.90
20416;DHT22;10367;52.202;5.996;2023-11-19T09:17:13;12.00;99.90
20416;DHT22;10367;52.202;5.996;2023-11-19T09:19:42;11.90;99.90
20416;DHT22;10367;52.202;5.996;2023-11-19T09:22:11;12.00;99.90
20416;DHT22;10367;52.202;5.996;2023-11-19T09:24:40;11.90;99.90
20416;DHT22;10367;52.202;5.996;2023-11-19T09:27:11;12.00;99.90
20416;DHT22;10367;52.202;5.996;2023-11-19T09:29:40;12.10;99.90
20416;DHT22;10367;52.202;5.996;2023-11-19T09:32:12;12.20;99.90
20416;DHT22;10367;52.202;5.996;2023-11-19T09:34:40;12.20;99.90
20416;DHT22;10367;52.202;5.996;2023-11-19T09:37:09;12.20;99.90
20416;DHT22;10367;52.202;5.996;2023-11-19T09:39:42;12.20;99.90
20416;DHT22;10367;52.202;5.996;2023-11-19T09:42:12;12.20;99.90
20416;DHT22;10367;52.202;5.996;2023-11-19T09:44:42;12.30;99.90
20416;DHT22;10367;52.202;5.996;2023-11-19T09:47:17;12.30;99.90
20416;DHT22;10367;52.202;5.996;2023-11-19T09:49:48;12.40;99.90
20416;DHT22;10367;52.202;5.996;2023-11-19T09:52:18;12.50;99.90
20416;DHT22;10367;52.202;5.996;2023-11-19T09:54:47;12.60;99.90
20416;DHT22;10367;52.202;5.996;2023-11-19T09:57:17;12.70;99.90
20416;DHT22;10367;52.202;5.996;2023-11-19T09:59:54;12.70;99.90
20416;DHT22;10367;52.202;5.996;2023-11-19T10:02:26;12.70;99.90
20416;DHT22;10367;52.202;5.996;2023-11-19T10:04:56;12.70;99.90
20416;DHT22;10367;52.202;5.996;2023-11-19T10:07:26;12.70;99.90
20416;DHT22;10367;52.202;5.996;2023-11-19T10:09:55;12.70;99.90
20416;DHT22;10367;52.202;5.996;2023-11-19T10:12:24;12.70;99.90
20416;DHT22;10367;52.202;5.996;2023-11-19T10:14:53;12.70;99.90
20416;DHT22;10367;52.202;5.996;2023-11-19T10:17:29;12.90;99.90
20416;DHT22;10367;52.202;5.996;2023-11-19T10:19:58;13.00;99.90
20416;DHT22;10367;52.202;5.996;2023-11-19T10:22:28;13.10;99.90
20416;DHT22;10367;52.202;5.996;2023-11-19T10:24:57;13.20;99.90
20416;DHT22;10367;52.202;5.996;2023-11-19T10:27:26;13.20;99.90
20416;DHT22;10367;52.202;5.996;2023-11-19T10:29:59;13.20;99.90
20416;DHT22;10367;52.202;5.996;2023-11-19T10:32:29;13.20;99.90
20416;DHT22;10367;52.202;5.996;2023-11-19T10:35:05;13.10;99.90
20416;DHT22;10367;52.202;5.996;2023-11-19T10:37:37;13.00;99.90
20416;DHT22;10367;52.202;5.996;2023-11-19T10:40:08;13.10;99.90
20416;DHT22;10367;52.202;5.996;2023-11-19T10:42:38;13.10;99.90
20416;DHT22;10367;52.202;5.996;2023-11-19T10:45:22;13.10;99.90
20416;DHT22;10367;52.202;5.996;2023-11-19T10:47:54;13.10;99.90
20416;DHT22;10367;52.202;5.996;2023-11-19T10:50:24;13.10;99.90
20416;DHT22;10367;52.202;5.996;2023-11-19T10:52:56;13.10;99.90
20416;DHT22;10367;52.202;5.996;2023-11-19T10:55:27;13.10;99.90
20416;DHT22;10367;52.202;5.996;2023-11-19T10:58:00;13.10;99.90
20416;DHT22;10367;52.202;5.996;2023-11-19T11:00:30;13.10;99.90
20416;DHT22;10367;52.202;5.996;2023-11-19T11:03:02;13.00;99.90
20416;DHT22;10367;52.202;5.996;2023-11-19T11:05:37;13.00;99.90
20416;DHT22;10367;52.202;5.996;2023-11-19T11:08:07;13.10;99.90
20416;DHT22;10367;52.202;5.996;2023-11-19T11:10:42;13.00;99.90
20416;DHT22;10367;52.202;5.996;2023-11-19T11:13:14;13.10;99.90
20416;DHT22;10367;52.202;5.996;2023-11-19T11:15:44;13.10;99.90
20416;DHT22;10367;52.202;5.996;2023-11-19T11:18:16;13.20;99.90
20416;DHT22;10367;52.202;5.996;2023-11-19T11:20:46;13.30;99.90
20416;DHT22;10367;52.202;5.996;2023-11-19T11:24:01;13.40;99.90
20416;DHT22;10367;52.202;5.996;2023-11-19T11:26:50;13.50;99.90
20416;DHT22;10367;52.202;5.996;2023-11-19T11:29:26;13.70;99.90
20416;DHT22;10367;52.202;5.996;2023-11-19T11:32:17;13.90;99.90
20416;DHT22;10367;52.202;5.996;2023-11-19T11:35:09;14.20;99.90
20416;DHT22;10367;52.202;5.996;2023-11-19T11:37:44;14.40;99.90
20416;DHT22;10367;52.202;5.996;2023-11-19T11:40:16;14.40;99.90
20416;DHT22;10367;52.202;5.996;2023-11-19T11:42:45;14.30;99.90
20416;DHT22;10367;52.202;5.996;2023-11-19T11:45:15;14.00;99.90
20416;DHT22;10367;52.202;5.996;2023-11-19T11:48:13;13.80;99.90
20416;DHT22;10367;52.202;5.996;2023-11-19T11:50:51;13.60;99.90
20416;DHT22;10367;52.202;5.996;2023-11-19T11:53:21;13.50;99.90
20416;DHT22;10367;52.202;5.996;2023-11-19T11:56:02;13.40;99.90
20416;DHT22;10367;52.202;5.996;2023-11-19T11:58:32;13.40;99.90
20416;DHT22;10367;52.202;5.996;2023-11-19T12:01:05;13.50;99.90
20416;DHT22;10367;52.202;5.996;2023-11-19T12:03:37;13.60;99.90
20416;DHT22;10367;52.202;5.996;2023-11-19T12:06:08;13.60;99.90
20416;DHT22;10367;52.202;5.996;2023-11-19T12:08:39;13.80;99.90
20416;DHT22;10367;52.202;5.996;2023-11-19T12:11:12;14.10;99.90
20416;DHT22;10367;52.202;5.996;2023-11-19T12:13:52;14.50;99.90
20416;DHT22;10367;52.202;5.996;2023-11-19T12:16:21;14.60;99.90
20416;DHT22;10367;52.202;5.996;2023-11-19T12:18:50;14.50;99.90
20416;DHT22;10367;52.202;5.996;2023-11-19T12:21:30;14.50;99.90
20416;DHT22;10367;52.202;5.996;2023-11-19T12:24:00;14.60;99.90
20416;DHT22;10367;52.202;5.996;2023-11-19T12:26:37;14.70;99.90
20416;DHT22;10367;52.202;5.996;2023-11-19T12:29:07;14.70;99.90
20416;DHT22;10367;52.202;5.996;2023-11-19T12:31:37;14.60;99.90
20416;DHT22;10367;52.202;5.996;2023-11-19T12:34:09;14.30;99.90
20416;DHT22;10367;52.202;5.996;2023-11-19T12:36:42;14.10;99.90
20416;DHT22;10367;52.202;5.996;2023-11-19T12:39:11;14.00;99.90
20416;DHT22;10367;52.202;5.996;2023-11-19T12:41:52;13.90;99.90
20416;DHT22;10367;52.202;5.996;2023-11-19T12:44:22;13.90;99.90
20416;DHT22;10367;52.202;5.996;2023-11-19T12:47:01;13.80;99.90
20416;DHT22;10367;52.202;5.996;2023-11-19T12:49:30;13.90;99.90
20416;DHT22;10367;52.202;5.996;2023-11-19T12:52:01;13.90;99.90
20416;DHT22;10367;52.202;5.996;2023-11-19T12:54:34;14.20;99.90
20416;DHT22;10367;52.202;5.996;2023-11-19T12:57:05;14.30;99.90
20416;DHT22;10367;52.202;5.996;2023-11-19T12:59:34;14.20;99.90
20416;DHT22;10367;52.202;5.996;2023-11-19T13:02:03;14.00;99.90
20416;DHT22;10367;52.202;5.996;2023-11-19T13:04:33;13.90;99.90
20416;DHT22;10367;52.202;5.996;2023-11-19T13:07:04;13.70;99.90
20416;DHT22;10367;52.202;5.996;2023-11-19T13:09:33;13.60;99.90
20416;DHT22;10367;52.202;5.996;2023-11-19T13:12:13;13.50;99.90
20416;DHT22;10367;52.202;5.996;2023-11-19T13:14:43;13.50;99.90
20416;DHT22;10367;52.202;5.996;2023-11-19T13:17:15;13.40;99.90
20416;DHT22;10367;52.202;5.996;2023-11-19T13:19:50;13.40;99.90
20416;DHT22;10367;52.202;5.996;2023-11-19T13:22:32;13.30;99.90
20416;DHT22;10367;52.202;5.996;2023-11-19T13:25:01;13.30;99.90
20416;DHT22;10367;52.202;5.996;2023-11-19T13:27:31;13.30;99.90
20416;DHT22;10367;52.202;5.996;2023-11-19T13:30:04;13.40;99.90
20416;DHT22;10367;52.202;5.996;2023-11-19T13:32:54;13.40;99.90
20416;DHT22;10367;52.202;5.996;2023-11-19T13:35:24;13.40;99.90
20416;DHT22;10367;52.202;5.996;2023-11-19T13:37:56;13.40;99.90
20416;DHT22;10367;52.202;5.996;2023-11-19T13:40:25;13.40;99.90
20416;DHT22;10367;52.202;5.996;2023-11-19T13:42:54;13.40;99.90
20416;DHT22;10367;52.202;5.996;2023-11-19T13:45:23;13.30;99.90
20416;DHT22;10367;52.202;5.996;2023-11-19T13:47:52;13.30;99.90
20416;DHT22;10367;52.202;5.996;2023-11-19T13:50:21;13.20;99.90
20416;DHT22;10367;52.202;5.996;2023-11-19T13:52:51;13.10;99.90
20416;DHT22;10367;52.202;5.996;2023-11-19T13:55:21;13.10;99.90
20416;DHT22;10367;52.202;5.996;2023-11-19T13:57:50;12.90;99.90
20416;DHT22;10367;52.202;5.996;2023-11-19T14:00:19;12.80;99.90
20416;DHT22;10367;52.202;5.996;2023-11-19T14:02:50;12.80;99.90
20416;DHT22;10367;52.202;5.996;2023-11-19T14:05:20;12.80;99.90
20416;DHT22;10367;52.202;5.996;2023-11-19T14:07:51;12.80;99.90
20416;DHT22;10367;52.202;5.996;2023-11-19T14:10:22;12.80;99.90
20416;DHT22;10367;52.202;5.996;2023-11-19T14:12:59;12.80;99.90
20416;DHT22;10367;52.202;5.996;2023-11-19T14:15:28;12.70;99.90
20416;DHT22;10367;52.202;5.996;2023-11-19T14:17:58;12.80;99.90
20416;DHT22;10367;52.202;5.996;2023-11-19T14:20:27;12.80;99.90
20416;DHT22;10367;52.202;5.996;2023-11-19T14:22:56;12.80;99.90
20416;DHT22;10367;52.202;5.996;2023-11-19T14:25:26;12.80;99.90
20416;DHT22;10367;52.202;5.996;2023-11-19T14:27:55;12.70;99.90
20416;DHT22;10367;52.202;5.996;2023-11-19T14:30:24;12.80;99.90
20416;DHT22;10367;52.202;5.996;2023-11-19T14:32:54;12.90;99.90
20416;DHT22;10367;52.202;5.996;2023-11-19T14:35:23;13.00;99.90
20416;DHT22;10367;52.202;5.996;2023-11-19T14:37:52;13.10;99.90
20416;DHT22;10367;52.202;5.996;2023-11-19T14:40:21;13.20;99.90
20416;DHT22;10367;52.202;5.996;2023-11-19T14:43:10;13.20;99.90
20416;DHT22;10367;52.202;5.996;2023-11-19T14:45:39;13.20;99.90
20416;DHT22;10367;52.202;5.996;2023-11-19T14:48:16;13.10;99.90
20416;DHT22;10367;52.202;5.996;2023-11-19T14:50:46;13.00;99.90
20416;DHT22;10367;52.202;5.996;2023-11-19T14:53:15;12.80;99.90
20416;DHT22;10367;52.202;5.996;2023-11-19T14:55:44;12.70;99.90
20416;DHT22;10367;52.202;5.996;2023-11-19T14:58:15;12.70;99.90
20416;DHT22;10367;52.202;5.996;2023-11-19T15:00:44;12.60;99.90
20416;DHT22;10367;52.202;5.996;2023-11-19T15:03:13;12.50;99.90
20416;DHT22;10367;52.202;5.996;2023-11-19T15:05:44;12.40;99.90
20416;DHT22;10367;52.202;5.996;2023-11-19T15:08:14;12.40;99.90
20416;DHT22;10367;52.202;5.996;2023-11-19T15:10:44;12.30;99.90
20416;DHT22;10367;52.202;5.996;2023-11-19T15:13:15;12.30;99.90
20416;DHT22;10367;52.202;5.996;2023-11-19T15:15:45;12.30;99.90
20416;DHT22;10367;52.202;5.996;2023-11-19T15:18:14;12.30;99.90
20416;DHT22;10367;52.202;5.996;2023-11-19T15:20:45;12.30;99.90
20416;DHT22;10367;52.202;5.996;2023-11-19T15:23:15;12.20;99.90
20416;DHT22;10367;52.202;5.996;2023-11-19T15:25:44;12.20;99.90
20416;DHT22;10367;52.202;5.996;2023-11-19T15:28:15;12.20;99.90
20416;DHT22;10367;52.202;5.996;2023-11-19T15:30:47;12.20;99.90
20416;DHT22;10367;52.202;5.996;2023-11-19T15:33:16;12.20;99.90
20416;DHT22;10367;52.202;5.996;2023-11-19T15:35:46;12.10;99.90
20416;DHT22;10367;52.202;5.996;2023-11-19T15:38:15;12.10;99.90
20416;DHT22;10367;52.202;5.996;2023-11-19T15:40:44;12.10;99.90
20416;DHT22;10367;52.202;5.996;2023-11-19T15:43:15;12.10;99.90
20416;DHT22;10367;52.202;5.996;2023-11-19T15:45:46;12.00;99.90
20416;DHT22;10367;52.202;5.996;2023-11-19T15:48:15;12.00;99.90
20416;DHT22;10367;52.202;5.996;2023-11-19T15:50:45;12.10;99.90
20416;DHT22;10367;52.202;5.996;2023-11-19T15:53:14;12.10;99.90